sensor_id;sensor_type;location;lat;lon;timestamp;temperature;humidity
16200;DHT22;8207;52.494;4.654;2022-11-04T00:01:42;11.70;99.90
16200;DHT22;8207;52.494;4.654;2022-11-04T00:04:10;11.70;99.90
16200;DHT22;8207;52.494;4.654;2022-11-04T00:06:37;11.70;99.90
16200;DHT22;8207;52.494;4.654;2022-11-04T00:09:08;11.70;99.90
16200;DHT22;8207;52.494;4.654;2022-11-04T00:11:35;11.70;99.90
16200;DHT22;8207;52.494;4.654;2022-11-04T00:14:20;11.70;99.90
16200;DHT22;8207;52.494;4.654;2022-11-04T00:16:48;11.70;99.90
16200;DHT22;8207;52.494;4.654;2022-11-04T00:19:32;11.70;99.90
16200;DHT22;8207;52.494;4.654;2022-11-04T00:22:19;11.70;99.90
16200;DHT22;8207;52.494;4.654;2022-11-04T00:25:05;11.70;99.90
16200;DHT22;8207;52.494;4.654;2022-11-04T00:27:49;11.70;99.90
16200;DHT22;8207;52.494;4.654;2022-11-04T00:30:34;11.70;99.90
16200;DHT22;8207;52.494;4.654;2022-11-04T00:33:01;11.70;99.90
16200;DHT22;8207;52.494;4.654;2022-11-04T00:35:48;11.60;99.90
16200;DHT22;8207;52.494;4.654;2022-11-04T00:38:16;11.60;99.90
16200;DHT22;8207;52.494;4.654;2022-11-04T00:40:44;11.60;99.90
16200;DHT22;8207;52.494;4.654;2022-11-04T00:43:11;11.60;99.90
16200;DHT22;8207;52.494;4.654;2022-11-04T00:45:40;11.60;99.90
16200;DHT22;8207;52.494;4.654;2022-11-04T00:48:07;11.70;99.90
16200;DHT22;8207;52.494;4.654;2022-11-04T00:50:33;11.70;99.90
16200;DHT22;8207;52.494;4.654;2022-11-04T00:53:01;11.60;99.90
16200;DHT22;8207;52.494;4.654;2022-11-04T00:55:28;11.60;99.90
16200;DHT22;8207;52.494;4.654;2022-11-04T00:57:57;11.60;99.90
16200;DHT22;8207;52.494;4.654;2022-11-04T01:00:24;11.60;99.90
16200;DHT22;8207;52.494;4.654;2022-11-04T01:02:50;11.60;99.90
16200;DHT22;8207;52.494;4.654;2022-11-04T01:05:18;11.60;99.90
16200;DHT22;8207;52.494;4.654;2022-11-04T01:07:44;11.60;99.90
16200;DHT22;8207;52.494;4.654;2022-11-04T01:10:11;11.60;99.90
16200;DHT22;8207;52.494;4.654;2022-11-04T01:12:38;11.60;99.90
16200;DHT22;8207;52.494;4.654;2022-11-04T01:15:07;11.50;99.90
16200;DHT22;8207;52.494;4.654;2022-11-04T01:17:34;11.50;99.90
16200;DHT22;8207;52.494;4.654;2022-11-04T01:20:01;11.50;99.90
16200;DHT22;8207;52.494;4.654;2022-11-04T01:22:28;11.50;99.90
16200;DHT22;8207;52.494;4.654;2022-11-04T01:24:55;11.50;99.90
16200;DHT22;8207;52.494;4.654;2022-11-04T01:27:22;11.40;99.90
16200;DHT22;8207;52.494;4.654;2022-11-04T01:29:49;11.40;99.90
16200;DHT22;8207;52.494;4.654;2022-11-04T01:32:17;11.40;99.90
16200;DHT22;8207;52.494;4.654;2022-11-04T01:34:45;11.40;99.90
16200;DHT22;8207;52.494;4.654;2022-11-04T01:37:12;11.40;99.90
16200;DHT22;8207;52.494;4.654;2022-11-04T01:39:39;11.30;99.90
16200;DHT22;8207;52.494;4.654;2022-11-04T01:42:08;11.30;99.90
16200;DHT22;8207;52.494;4.654;2022-11-04T01:44:54;11.20;99.90
16200;DHT22;8207;52.494;4.654;2022-11-04T01:47:29;11.20;99.90
16200;DHT22;8207;52.494;4.654;2022-11-04T01:50:00;11.10;99.90
16200;DHT22;8207;52.494;4.654;2022-11-04T01:52:32;11.10;99.90
16200;DHT22;8207;52.494;4.654;2022-11-04T01:55:04;11.00;99.90
16200;DHT22;8207;52.494;4.654;2022-11-04T01:57:35;11.00;99.90
16200;DHT22;8207;52.494;4.654;2022-11-04T02:00:06;11.00;99.90
16200;DHT22;8207;52.494;4.654;2022-11-04T02:02:38;10.90;99.90
16200;DHT22;8207;52.494;4.654;2022-11-04T02:05:07;10.80;99.90
16200;DHT22;8207;52.494;4.654;2022-11-04T02:07:35;10.70;99.90
16200;DHT22;8207;52.494;4.654;2022-11-04T02:10:03;10.60;99.90
16200;DHT22;8207;52.494;4.654;2022-11-04T02:12:30;10.60;99.90
16200;DHT22;8207;52.494;4.654;2022-11-04T02:15:14;10.50;99.90
16200;DHT22;8207;52.494;4.654;2022-11-04T02:18:01;10.40;99.90
16200;DHT22;8207;52.494;4.654;2022-11-04T02:20:44;10.40;99.90
16200;DHT22;8207;52.494;4.654;2022-11-04T02:23:40;10.40;99.90
16200;DHT22;8207;52.494;4.654;2022-11-04T02:26:40;10.30;99.90
16200;DHT22;8207;52.494;4.654;2022-11-04T02:29:33;10.30;99.90
16200;DHT22;8207;52.494;4.654;2022-11-04T02:32:10;10.30;99.90
16200;DHT22;8207;52.494;4.654;2022-11-04T02:34:47;10.30;99.90
16200;DHT22;8207;52.494;4.654;2022-11-04T02:37:27;10.30;99.90
16200;DHT22;8207;52.494;4.654;2022-11-04T02:40:06;10.30;99.90
16200;DHT22;8207;52.494;4.654;2022-11-04T02:42:38;10.30;99.90
16200;DHT22;8207;52.494;4.654;2022-11-04T02:45:14;10.20;99.90
16200;DHT22;8207;52.494;4.654;2022-11-04T02:47:45;10.30;99.90
16200;DHT22;8207;52.494;4.654;2022-11-04T02:50:21;10.30;99.90
16200;DHT22;8207;52.494;4.654;2022-11-04T02:52:56;10.30;99.90
16200;DHT22;8207;52.494;4.654;2022-11-04T02:55:26;10.30;99.90
16200;DHT22;8207;52.494;4.654;2022-11-04T02:57:57;10.30;99.90
16200;DHT22;8207;52.494;4.654;2022-11-04T03:00:27;10.30;99.90
16200;DHT22;8207;52.494;4.654;2022-11-04T03:02:58;10.30;99.90
16200;DHT22;8207;52.494;4.654;2022-11-04T03:05:29;10.30;99.90
16200;DHT22;8207;52.494;4.654;2022-11-04T03:08:00;10.40;99.90
16200;DHT22;8207;52.494;4.654;2022-11-04T03:10:32;10.40;99.90
16200;DHT22;8207;52.494;4.654;2022-11-04T03:13:06;10.40;99.90
16200;DHT22;8207;52.494;4.654;2022-11-04T03:15:37;10.40;99.90
16200;DHT22;8207;52.494;4.654;2022-11-04T03:18:14;10.40;99.90
16200;DHT22;8207;52.494;4.654;2022-11-04T03:20:45;10.50;99.90
16200;DHT22;8207;52.494;4.654;2022-11-04T03:23:13;10.50;99.90
16200;DHT22;8207;52.494;4.654;2022-11-04T03:25:43;10.50;99.90
16200;DHT22;8207;52.494;4.654;2022-11-04T03:28:19;10.50;99.90
16200;DHT22;8207;52.494;4.654;2022-11-04T03:30:53;10.50;99.90
16200;DHT22;8207;52.494;4.654;2022-11-04T03:33:25;10.50;99.90
16200;DHT22;8207;52.494;4.654;2022-11-04T03:35:54;10.50;99.90
16200;DHT22;8207;52.494;4.654;2022-11-04T03:38:21;10.50;99.90
16200;DHT22;8207;52.494;4.654;2022-11-04T03:40:49;10.50;99.90
16200;DHT22;8207;52.494;4.654;2022-11-04T03:43:20;10.50;99.90
16200;DHT22;8207;52.494;4.654;2022-11-04T03:45:50;10.60;99.90
16200;DHT22;8207;52.494;4.654;2022-11-04T03:48:17;10.50;99.90
16200;DHT22;8207;52.494;4.654;2022-11-04T03:50:45;10.60;99.90
16200;DHT22;8207;52.494;4.654;2022-11-04T03:53:15;10.50;99.90
16200;DHT22;8207;52.494;4.654;2022-11-04T03:55:52;10.50;99.90
16200;DHT22;8207;52.494;4.654;2022-11-04T03:58:29;10.50;99.90
16200;DHT22;8207;52.494;4.654;2022-11-04T04:01:03;10.50;99.90
16200;DHT22;8207;52.494;4.654;2022-11-04T04:03:42;10.40;99.90
16200;DHT22;8207;52.494;4.654;2022-11-04T04:06:14;10.50;99.90
16200;DHT22;8207;52.494;4.654;2022-11-04T04:08:48;10.40;99.90
16200;DHT22;8207;52.494;4.654;2022-11-04T04:11:18;10.40;99.90
16200;DHT22;8207;52.494;4.654;2022-11-04T04:13:51;10.40;99.90
16200;DHT22;8207;52.494;4.654;2022-11-04T04:16:26;10.40;99.90
16200;DHT22;8207;52.494;4.654;2022-11-04T04:18:58;10.40;99.90
16200;DHT22;8207;52.494;4.654;2022-11-04T04:21:32;10.30;99.90
16200;DHT22;8207;52.494;4.654;2022-11-04T04:24:03;10.30;99.90
16200;DHT22;8207;52.494;4.654;2022-11-04T04:26:50;10.30;99.90
16200;DHT22;8207;52.494;4.654;2022-11-04T04:29:36;10.20;99.90
16200;DHT22;8207;52.494;4.654;2022-11-04T04:32:06;10.20;99.90
16200;DHT22;8207;52.494;4.654;2022-11-04T04:34:33;10.20;99.90
16200;DHT22;8207;52.494;4.654;2022-11-04T04:37:02;10.30;99.90
16200;DHT22;8207;52.494;4.654;2022-11-04T04:39:34;10.20;99.90
16200;DHT22;8207;52.494;4.654;2022-11-04T04:42:20;10.20;99.90
16200;DHT22;8207;52.494;4.654;2022-11-04T04:45:06;10.30;99.90
16200;DHT22;8207;52.494;4.654;2022-11-04T04:47:39;10.20;99.90
16200;DHT22;8207;52.494;4.654;2022-11-04T04:50:12;10.30;99.90
16200;DHT22;8207;52.494;4.654;2022-11-04T04:52:43;10.20;99.90
16200;DHT22;8207;52.494;4.654;2022-11-04T04:55:10;10.30;99.90
16200;DHT22;8207;52.494;4.654;2022-11-04T04:57:38;10.30;99.90
16200;DHT22;8207;52.494;4.654;2022-11-04T05:00:07;10.30;99.90
16200;DHT22;8207;52.494;4.654;2022-11-04T05:02:36;10.20;99.90
16200;DHT22;8207;52.494;4.654;2022-11-04T05:05:03;10.20;99.90
16200;DHT22;8207;52.494;4.654;2022-11-04T05:07:30;10.20;99.90
16200;DHT22;8207;52.494;4.654;2022-11-04T05:09:57;10.20;99.90
16200;DHT22;8207;52.494;4.654;2022-11-04T05:12:24;10.20;99.90
16200;DHT22;8207;52.494;4.654;2022-11-04T05:14:51;10.20;99.90
16200;DHT22;8207;52.494;4.654;2022-11-04T05:17:17;10.20;99.90
16200;DHT22;8207;52.494;4.654;2022-11-04T05:19:46;10.20;99.90
16200;DHT22;8207;52.494;4.654;2022-11-04T05:22:13;10.20;99.90
16200;DHT22;8207;52.494;4.654;2022-11-04T05:24:39;10.20;99.90
16200;DHT22;8207;52.494;4.654;2022-11-04T05:27:06;10.10;99.90
16200;DHT22;8207;52.494;4.654;2022-11-04T05:29:33;10.10;99.90
16200;DHT22;8207;52.494;4.654;2022-11-04T05:32:00;10.10;99.90
16200;DHT22;8207;52.494;4.654;2022-11-04T05:34:27;10.10;99.90
16200;DHT22;8207;52.494;4.654;2022-11-04T05:36:55;10.10;99.90
16200;DHT22;8207;52.494;4.654;2022-11-04T05:39:22;10.10;99.90
16200;DHT22;8207;52.494;4.654;2022-11-04T05:41:48;10.10;99.90
16200;DHT22;8207;52.494;4.654;2022-11-04T05:44:15;10.10;99.90
16200;DHT22;8207;52.494;4.654;2022-11-04T05:46:42;10.10;99.90
16200;DHT22;8207;52.494;4.654;2022-11-04T05:49:10;10.10;99.90
16200;DHT22;8207;52.494;4.654;2022-11-04T05:51:37;10.10;99.90
16200;DHT22;8207;52.494;4.654;2022-11-04T05:54:05;10.10;99.90
16200;DHT22;8207;52.494;4.654;2022-11-04T05:56:32;10.10;99.90
16200;DHT22;8207;52.494;4.654;2022-11-04T05:58:58;10.00;99.90
16200;DHT22;8207;52.494;4.654;2022-11-04T06:01:29;10.00;99.90
16200;DHT22;8207;52.494;4.654;2022-11-04T06:03:57;10.00;99.90
16200;DHT22;8207;52.494;4.654;2022-11-04T06:06:26;10.00;99.90
16200;DHT22;8207;52.494;4.654;2022-11-04T06:08:54;10.00;99.90
16200;DHT22;8207;52.494;4.654;2022-11-04T06:11:23;10.00;99.90
16200;DHT22;8207;52.494;4.654;2022-11-04T06:13:52;10.00;99.90
16200;DHT22;8207;52.494;4.654;2022-11-04T06:16:19;10.10;99.90
16200;DHT22;8207;52.494;4.654;2022-11-04T06:18:46;10.10;99.90
16200;DHT22;8207;52.494;4.654;2022-11-04T06:21:23;10.10;99.90
16200;DHT22;8207;52.494;4.654;2022-11-04T06:23:51;10.10;99.90
16200;DHT22;8207;52.494;4.654;2022-11-04T06:26:19;10.10;99.90
16200;DHT22;8207;52.494;4.654;2022-11-04T06:28:47;10.10;99.90
16200;DHT22;8207;52.494;4.654;2022-11-04T06:31:15;10.20;99.90
16200;DHT22;8207;52.494;4.654;2022-11-04T06:33:43;10.20;99.90
16200;DHT22;8207;52.494;4.654;2022-11-04T06:36:12;10.20;99.90
16200;DHT22;8207;52.494;4.654;2022-11-04T06:38:39;10.20;99.90
16200;DHT22;8207;52.494;4.654;2022-11-04T06:41:09;10.20;99.90
16200;DHT22;8207;52.494;4.654;2022-11-04T06:43:36;10.20;99.90
16200;DHT22;8207;52.494;4.654;2022-11-04T06:46:05;10.20;99.90
16200;DHT22;8207;52.494;4.654;2022-11-04T06:48:32;10.20;99.90
16200;DHT22;8207;52.494;4.654;2022-11-04T06:50:59;10.20;99.90
16200;DHT22;8207;52.494;4.654;2022-11-04T06:53:26;10.20;99.90
16200;DHT22;8207;52.494;4.654;2022-11-04T06:56:01;10.20;99.90
16200;DHT22;8207;52.494;4.654;2022-11-04T06:58:28;10.20;99.90
16200;DHT22;8207;52.494;4.654;2022-11-04T07:00:55;10.20;99.90
16200;DHT22;8207;52.494;4.654;2022-11-04T07:03:23;10.20;99.90
16200;DHT22;8207;52.494;4.654;2022-11-04T07:05:50;10.20;99.90
16200;DHT22;8207;52.494;4.654;2022-11-04T07:08:18;10.20;99.90
16200;DHT22;8207;52.494;4.654;2022-11-04T07:10:45;10.20;99.90
16200;DHT22;8207;52.494;4.654;2022-11-04T07:13:12;10.20;99.90
16200;DHT22;8207;52.494;4.654;2022-11-04T07:15:39;10.20;99.90
16200;DHT22;8207;52.494;4.654;2022-11-04T07:18:06;10.10;99.90
16200;DHT22;8207;52.494;4.654;2022-11-04T07:20:35;10.10;99.90
16200;DHT22;8207;52.494;4.654;2022-11-04T07:23:02;10.10;99.90
16200;DHT22;8207;52.494;4.654;2022-11-04T07:25:29;10.00;99.90
16200;DHT22;8207;52.494;4.654;2022-11-04T07:27:56;10.00;99.90
16200;DHT22;8207;52.494;4.654;2022-11-04T07:30:24;10.00;99.90
16200;DHT22;8207;52.494;4.654;2022-11-04T07:32:51;10.00;99.90
16200;DHT22;8207;52.494;4.654;2022-11-04T07:35:18;10.00;99.90
16200;DHT22;8207;52.494;4.654;2022-11-04T07:37:46;10.00;99.90
16200;DHT22;8207;52.494;4.654;2022-11-04T07:40:13;10.00;99.90
16200;DHT22;8207;52.494;4.654;2022-11-04T07:42:43;10.00;99.90
16200;DHT22;8207;52.494;4.654;2022-11-04T07:45:10;10.00;99.90
16200;DHT22;8207;52.494;4.654;2022-11-04T07:47:37;10.10;99.90
16200;DHT22;8207;52.494;4.654;2022-11-04T07:50:04;10.10;99.90
16200;DHT22;8207;52.494;4.654;2022-11-04T07:52:31;10.10;99.90
16200;DHT22;8207;52.494;4.654;2022-11-04T07:55:00;10.00;99.90
16200;DHT22;8207;52.494;4.654;2022-11-04T07:57:27;10.00;99.90
16200;DHT22;8207;52.494;4.654;2022-11-04T07:59:56;10.00;99.90
16200;DHT22;8207;52.494;4.654;2022-11-04T08:02:23;10.00;99.90
16200;DHT22;8207;52.494;4.654;2022-11-04T08:04:50;10.00;99.90
16200;DHT22;8207;52.494;4.654;2022-11-04T08:07:17;10.00;99.90
16200;DHT22;8207;52.494;4.654;2022-11-04T08:09:43;10.10;99.90
16200;DHT22;8207;52.494;4.654;2022-11-04T08:12:12;10.10;99.90
16200;DHT22;8207;52.494;4.654;2022-11-04T08:14:39;10.00;99.90
16200;DHT22;8207;52.494;4.654;2022-11-04T08:17:06;10.00;99.90
16200;DHT22;8207;52.494;4.654;2022-11-04T08:19:33;10.10;99.90
16200;DHT22;8207;52.494;4.654;2022-11-04T08:22:01;10.10;99.90
16200;DHT22;8207;52.494;4.654;2022-11-04T08:24:28;10.10;99.90
16200;DHT22;8207;52.494;4.654;2022-11-04T08:26:55;10.10;99.90
16200;DHT22;8207;52.494;4.654;2022-11-04T08:29:23;10.20;99.90
16200;DHT22;8207;52.494;4.654;2022-11-04T08:31:50;10.20;99.90
16200;DHT22;8207;52.494;4.654;2022-11-04T08:34:17;10.20;99.90
16200;DHT22;8207;52.494;4.654;2022-11-04T08:36:44;10.20;99.90
16200;DHT22;8207;52.494;4.654;2022-11-04T08:39:12;10.20;99.90
16200;DHT22;8207;52.494;4.654;2022-11-04T08:41:41;10.30;99.90
16200;DHT22;8207;52.494;4.654;2022-11-04T08:44:10;10.30;99.90
16200;DHT22;8207;52.494;4.654;2022-11-04T08:46:40;10.40;99.90
16200;DHT22;8207;52.494;4.654;2022-11-04T08:49:07;10.60;99.90
16200;DHT22;8207;52.494;4.654;2022-11-04T08:51:36;10.70;99.90
16200;DHT22;8207;52.494;4.654;2022-11-04T08:54:04;10.90;99.90
16200;DHT22;8207;52.494;4.654;2022-11-04T08:56:33;11.10;99.90
16200;DHT22;8207;52.494;4.654;2022-11-04T08:59:00;11.20;99.90
16200;DHT22;8207;52.494;4.654;2022-11-04T09:01:30;11.30;99.90
16200;DHT22;8207;52.494;4.654;2022-11-04T09:03:58;11.30;99.90
16200;DHT22;8207;52.494;4.654;2022-11-04T09:06:28;11.40;99.90
16200;DHT22;8207;52.494;4.654;2022-11-04T09:08:55;11.50;99.90
16200;DHT22;8207;52.494;4.654;2022-11-04T09:11:29;11.50;99.90
16200;DHT22;8207;52.494;4.654;2022-11-04T09:13:58;11.60;99.90
16200;DHT22;8207;52.494;4.654;2022-11-04T09:16:26;11.50;99.90
16200;DHT22;8207;52.494;4.654;2022-11-04T09:18:55;11.60;99.90
16200;DHT22;8207;52.494;4.654;2022-11-04T09:21:24;11.60;99.90
16200;DHT22;8207;52.494;4.654;2022-11-04T09:23:51;11.60;99.90
16200;DHT22;8207;52.494;4.654;2022-11-04T09:26:22;11.70;99.90
16200;DHT22;8207;52.494;4.654;2022-11-04T09:28:52;11.70;99.90
16200;DHT22;8207;52.494;4.654;2022-11-04T09:31:20;11.70;99.90
16200;DHT22;8207;52.494;4.654;2022-11-04T09:33:47;11.80;99.90
16200;DHT22;8207;52.494;4.654;2022-11-04T09:36:13;11.80;99.90
16200;DHT22;8207;52.494;4.654;2022-11-04T09:38:42;11.80;99.90
16200;DHT22;8207;52.494;4.654;2022-11-04T09:41:24;11.90;99.90
16200;DHT22;8207;52.494;4.654;2022-11-04T09:43:59;11.90;99.90
16200;DHT22;8207;52.494;4.654;2022-11-04T09:46:30;11.90;99.90
16200;DHT22;8207;52.494;4.654;2022-11-04T09:49:00;12.00;99.90
16200;DHT22;8207;52.494;4.654;2022-11-04T09:51:28;11.90;99.90
16200;DHT22;8207;52.494;4.654;2022-11-04T09:53:59;12.00;99.90
16200;DHT22;8207;52.494;4.654;2022-11-04T09:56:32;12.00;99.90
16200;DHT22;8207;52.494;4.654;2022-11-04T09:59:01;12.10;99.90
16200;DHT22;8207;52.494;4.654;2022-11-04T10:01:32;12.10;99.90
16200;DHT22;8207;52.494;4.654;2022-11-04T10:04:17;12.20;99.90
16200;DHT22;8207;52.494;4.654;2022-11-04T10:07:01;12.20;99.90
16200;DHT22;8207;52.494;4.654;2022-11-04T10:09:43;12.10;99.90
16200;DHT22;8207;52.494;4.654;2022-11-04T10:12:22;12.20;99.90
16200;DHT22;8207;52.494;4.654;2022-11-04T10:15:08;12.20;99.90
16200;DHT22;8207;52.494;4.654;2022-11-04T10:17:52;12.30;99.90
16200;DHT22;8207;52.494;4.654;2022-11-04T10:20:30;12.30;99.90
16200;DHT22;8207;52.494;4.654;2022-11-04T10:23:06;12.30;99.90
16200;DHT22;8207;52.494;4.654;2022-11-04T10:25:47;12.30;99.90
16200;DHT22;8207;52.494;4.654;2022-11-04T10:28:16;12.30;99.90
16200;DHT22;8207;52.494;4.654;2022-11-04T10:30:46;12.20;99.90
16200;DHT22;8207;52.494;4.654;2022-11-04T10:33:18;12.30;99.90
16200;DHT22;8207;52.494;4.654;2022-11-04T10:35:48;12.20;99.90
16200;DHT22;8207;52.494;4.654;2022-11-04T10:38:20;12.20;99.90
16200;DHT22;8207;52.494;4.654;2022-11-04T10:40:51;12.10;99.90
16200;DHT22;8207;52.494;4.654;2022-11-04T10:43:27;12.10;99.90
16200;DHT22;8207;52.494;4.654;2022-11-04T10:46:06;12.10;99.90
16200;DHT22;8207;52.494;4.654;2022-11-04T10:48:38;12.10;99.90
16200;DHT22;8207;52.494;4.654;2022-11-04T10:51:08;12.20;99.90
16200;DHT22;8207;52.494;4.654;2022-11-04T10:53:35;12.20;99.90
16200;DHT22;8207;52.494;4.654;2022-11-04T10:56:06;12.30;99.90
16200;DHT22;8207;52.494;4.654;2022-11-04T10:58:42;12.30;99.90
16200;DHT22;8207;52.494;4.654;2022-11-04T11:01:25;12.40;99.90
16200;DHT22;8207;52.494;4.654;2022-11-04T11:03:53;12.40;99.90
16200;DHT22;8207;52.494;4.654;2022-11-04T11:06:24;12.50;99.90
16200;DHT22;8207;52.494;4.654;2022-11-04T11:08:55;12.50;99.90
16200;DHT22;8207;52.494;4.654;2022-11-04T11:11:40;12.40;99.90
16200;DHT22;8207;52.494;4.654;2022-11-04T11:14:17;12.40;99.90
16200;DHT22;8207;52.494;4.654;2022-11-04T11:16:45;12.40;99.90
16200;DHT22;8207;52.494;4.654;2022-11-04T11:19:18;12.30;99.90
16200;DHT22;8207;52.494;4.654;2022-11-04T11:21:46;12.30;99.90
16200;DHT22;8207;52.494;4.654;2022-11-04T11:24:18;12.20;99.90
16200;DHT22;8207;52.494;4.654;2022-11-04T11:26:48;12.10;99.90
16200;DHT22;8207;52.494;4.654;2022-11-04T11:29:19;12.00;99.90
16200;DHT22;8207;52.494;4.654;2022-11-04T11:31:48;12.00;99.90
16200;DHT22;8207;52.494;4.654;2022-11-04T11:34:20;11.90;99.90
16200;DHT22;8207;52.494;4.654;2022-11-04T11:36:49;11.90;99.90
16200;DHT22;8207;52.494;4.654;2022-11-04T11:39:18;11.90;99.90
16200;DHT22;8207;52.494;4.654;2022-11-04T11:41:52;11.90;99.90
16200;DHT22;8207;52.494;4.654;2022-11-04T11:44:27;11.90;99.90
16200;DHT22;8207;52.494;4.654;2022-11-04T11:46:59;11.90;99.90
16200;DHT22;8207;52.494;4.654;2022-11-04T11:49:29;11.90;99.90
16200;DHT22;8207;52.494;4.654;2022-11-04T11:52:23;11.90;99.90
16200;DHT22;8207;52.494;4.654;2022-11-04T11:54:54;11.90;99.90
16200;DHT22;8207;52.494;4.654;2022-11-04T11:57:33;11.90;99.90
16200;DHT22;8207;52.494;4.654;2022-11-04T12:00:03;11.90;99.90
16200;DHT22;8207;52.494;4.654;2022-11-04T12:02:40;11.90;99.90
16200;DHT22;8207;52.494;4.654;2022-11-04T12:05:09;11.90;99.90
16200;DHT22;8207;52.494;4.654;2022-11-04T12:07:42;11.90;99.90
16200;DHT22;8207;52.494;4.654;2022-11-04T12:10:19;11.90;99.90
16200;DHT22;8207;52.494;4.654;2022-11-04T12:13:00;11.80;99.90
16200;DHT22;8207;52.494;4.654;2022-11-04T12:15:44;11.70;99.90
16200;DHT22;8207;52.494;4.654;2022-11-04T12:18:55;11.70;99.90
16200;DHT22;8207;52.494;4.654;2022-11-04T12:21:27;11.70;99.90
16200;DHT22;8207;52.494;4.654;2022-11-04T12:24:00;11.70;99.90
16200;DHT22;8207;52.494;4.654;2022-11-04T12:26:36;11.80;99.90
16200;DHT22;8207;52.494;4.654;2022-11-04T12:29:17;11.80;99.90
16200;DHT22;8207;52.494;4.654;2022-11-04T12:31:50;11.90;99.90
16200;DHT22;8207;52.494;4.654;2022-11-04T12:34:29;11.90;99.90
16200;DHT22;8207;52.494;4.654;2022-11-04T12:37:10;11.90;99.90
16200;DHT22;8207;52.494;4.654;2022-11-04T12:39:54;11.90;99.90
16200;DHT22;8207;52.494;4.654;2022-11-04T12:42:33;11.90;99.90
16200;DHT22;8207;52.494;4.654;2022-11-04T12:45:16;11.90;99.90
16200;DHT22;8207;52.494;4.654;2022-11-04T12:47:46;12.00;99.90
16200;DHT22;8207;52.494;4.654;2022-11-04T12:50:29;12.10;99.90
16200;DHT22;8207;52.494;4.654;2022-11-04T12:53:22;12.10;99.90
16200;DHT22;8207;52.494;4.654;2022-11-04T12:56:01;12.10;99.90
16200;DHT22;8207;52.494;4.654;2022-11-04T12:58:41;12.10;99.90
16200;DHT22;8207;52.494;4.654;2022-11-04T13:01:14;12.10;99.90
16200;DHT22;8207;52.494;4.654;2022-11-04T13:03:48;12.20;99.90
16200;DHT22;8207;52.494;4.654;2022-11-04T13:06:19;12.20;99.90
16200;DHT22;8207;52.494;4.654;2022-11-04T13:08:50;12.20;99.90
16200;DHT22;8207;52.494;4.654;2022-11-04T13:11:22;12.30;99.90
16200;DHT22;8207;52.494;4.654;2022-11-04T13:13:57;12.30;99.90
16200;DHT22;8207;52.494;4.654;2022-11-04T13:16:26;12.30;99.90
16200;DHT22;8207;52.494;4.654;2022-11-04T13:18:55;12.30;99.90
16200;DHT22;8207;52.494;4.654;2022-11-04T13:21:24;12.40;99.90
16200;DHT22;8207;52.494;4.654;2022-11-04T13:23:55;12.40;99.90
16200;DHT22;8207;52.494;4.654;2022-11-04T13:26:24;12.40;99.90
16200;DHT22;8207;52.494;4.654;2022-11-04T13:28:55;12.40;99.90
16200;DHT22;8207;52.494;4.654;2022-11-04T13:31:32;12.50;99.90
16200;DHT22;8207;52.494;4.654;2022-11-04T13:34:08;12.50;99.90
16200;DHT22;8207;52.494;4.654;2022-11-04T13:36:41;12.40;99.90
16200;DHT22;8207;52.494;4.654;2022-11-04T13:39:14;12.40;99.90
16200;DHT22;8207;52.494;4.654;2022-11-04T13:42:19;12.40;99.90
16200;DHT22;8207;52.494;4.654;2022-11-04T13:44:51;12.60;99.90
16200;DHT22;8207;52.494;4.654;2022-11-04T13:47:25;12.50;99.90
16200;DHT22;8207;52.494;4.654;2022-11-04T13:49:55;12.60;99.90
16200;DHT22;8207;52.494;4.654;2022-11-04T13:52:24;12.50;99.90
16200;DHT22;8207;52.494;4.654;2022-11-04T13:54:55;12.60;99.90
16200;DHT22;8207;52.494;4.654;2022-11-04T13:57:25;12.60;99.90
16200;DHT22;8207;52.494;4.654;2022-11-04T14:00:18;12.60;99.90
16200;DHT22;8207;52.494;4.654;2022-11-04T14:02:48;12.60;99.90
16200;DHT22;8207;52.494;4.654;2022-11-04T14:08:22;12.40;99.90
16200;DHT22;8207;52.494;4.654;2022-11-04T14:11:09;12.40;99.90
16200;DHT22;8207;52.494;4.654;2022-11-04T14:13:56;12.40;99.90
16200;DHT22;8207;52.494;4.654;2022-11-04T14:16:43;12.40;99.90
16200;DHT22;8207;52.494;4.654;2022-11-04T14:22:47;12.30;99.90
16200;DHT22;8207;52.494;4.654;2022-11-04T14:25:25;12.30;99.90
16200;DHT22;8207;52.494;4.654;2022-11-04T14:27:53;12.30;99.90
16200;DHT22;8207;52.494;4.654;2022-11-04T14:30:43;12.30;99.90
16200;DHT22;8207;52.494;4.654;2022-11-04T14:33:26;12.30;99.90
16200;DHT22;8207;52.494;4.654;2022-11-04T14:35:56;12.30;99.90
16200;DHT22;8207;52.494;4.654;2022-11-04T14:38:40;12.20;99.90
16200;DHT22;8207;52.494;4.654;2022-11-04T14:41:16;12.20;99.90
16200;DHT22;8207;52.494;4.654;2022-11-04T14:43:47;12.20;99.90
16200;DHT22;8207;52.494;4.654;2022-11-04T14:46:19;12.10;99.90
16200;DHT22;8207;52.494;4.654;2022-11-04T14:48:50;12.10;99.90
16200;DHT22;8207;52.494;4.654;2022-11-04T14:51:22;12.00;99.90
16200;DHT22;8207;52.494;4.654;2022-11-04T14:53:54;12.00;99.90
16200;DHT22;8207;52.494;4.654;2022-11-04T14:56:25;12.00;99.90
16200;DHT22;8207;52.494;4.654;2022-11-04T14:58:56;12.00;99.90
16200;DHT22;8207;52.494;4.654;2022-11-04T15:01:24;12.00;99.90
16200;DHT22;8207;52.494;4.654;2022-11-04T15:03:52;12.00;99.90
16200;DHT22;8207;52.494;4.654;2022-11-04T15:06:23;11.90;99.90
16200;DHT22;8207;52.494;4.654;2022-11-04T15:08:53;11.90;99.90
16200;DHT22;8207;52.494;4.654;2022-11-04T15:11:22;11.90;99.90
16200;DHT22;8207;52.494;4.654;2022-11-04T15:14:12;11.90;99.90
16200;DHT22;8207;52.494;4.654;2022-11-04T15:16:40;11.90;99.90
16200;DHT22;8207;52.494;4.654;2022-11-04T15:19:08;11.90;99.90
16200;DHT22;8207;52.494;4.654;2022-11-04T15:21:38;11.90;99.90
16200;DHT22;8207;52.494;4.654;2022-11-04T15:24:12;11.90;99.90
16200;DHT22;8207;52.494;4.654;2022-11-04T15:26:41;11.90;99.90
16200;DHT22;8207;52.494;4.654;2022-11-04T15:29:10;11.90;99.90
16200;DHT22;8207;52.494;4.654;2022-11-04T15:31:41;11.90;99.90
16200;DHT22;8207;52.494;4.654;2022-11-04T15:34:16;11.90;99.90
16200;DHT22;8207;52.494;4.654;2022-11-04T15:36:43;11.90;99.90
16200;DHT22;8207;52.494;4.654;2022-11-04T15:39:14;11.90;99.90
16200;DHT22;8207;52.494;4.654;2022-11-04T15:41:42;11.90;99.90
16200;DHT22;8207;52.494;4.654;2022-11-04T15:44:30;11.80;99.90
16200;DHT22;8207;52.494;4.654;2022-11-04T15:46:59;11.80;99.90
16200;DHT22;8207;52.494;4.654;2022-11-04T15:49:28;11.90;99.90
16200;DHT22;8207;52.494;4.654;2022-11-04T15:51:58;11.90;99.90
16200;DHT22;8207;52.494;4.654;2022-11-04T15:54:28;11.90;99.90
16200;DHT22;8207;52.494;4.654;2022-11-04T15:56:59;11.90;99.90
16200;DHT22;8207;52.494;4.654;2022-11-04T15:59:31;11.80;99.90
16200;DHT22;8207;52.494;4.654;2022-11-04T16:01:58;11.80;99.90
16200;DHT22;8207;52.494;4.654;2022-11-04T16:04:27;11.80;99.90
16200;DHT22;8207;52.494;4.654;2022-11-04T16:07:04;11.70;99.90
16200;DHT22;8207;52.494;4.654;2022-11-04T16:09:44;11.70;99.90
16200;DHT22;8207;52.494;4.654;2022-11-04T16:12:14;11.70;99.90
16200;DHT22;8207;52.494;4.654;2022-11-04T16:14:49;11.70;99.90
16200;DHT22;8207;52.494;4.654;2022-11-04T16:17:18;11.70;99.90
16200;DHT22;8207;52.494;4.654;2022-11-04T16:19:46;11.60;99.90
16200;DHT22;8207;52.494;4.654;2022-11-04T16:22:19;11.60;99.90